Accueil
METAR-TAF:

METAR-TAF

Aéroports :

Aéroport de Saint-Yan

Saint-Yan, France

latitude: 46-24-45N, longitude: 004-00-48E, altitude: 244 m

Observation

Le bulletin a été fait il y a 39 minutes, à 04:30 UTC
Vent 3 kt de sud-est
Température -3°C
Humidité 100%
Pression 1028 hPa
Visibilité: 4800 m
brume

METAR: LFLN 160430Z AUTO 13003KT 4800 BR NSC M03/M03 Q1028

Heure: 06:09 (05:09 UTC)

Prévision

Le bulletin a été fait il y a 12 heures et 9 minutes, à 17:00 UTC
Prévision valable du 15 à 18 UTC au 16 à 03 UTC
Vent 2 kt de direction variable
Visibilité 10 km ou plus
pas de nuages en-dessous de 1500 mètres et pas de cumulonimbus.
Temporairement
du 15 à 19 UTC au 16 à 03 UTC
Visibilité: 3000 m
brume

TAF: LFLN 151700Z 1518/1603 VRB02KT CAVOK TEMPO 1519/1603 3000 BR

Observations et prévisions météorologiques de plus de 4000 aéroports (messages METAR et TAF).

Les stations disponibles sont représentées par des disques jaunes et rouges sur la carte.

Passer la souris dessus pour voir le nom de la station.

Cliquer dessus pour voir les observations et prévisions météorologiques.

Pour changer de carte: cliquez sur les boutons verts avec une croix noire pour zoomer, sur le bouton vert avec un tiret pour effectuer un zoom arrière, ou sur les flèches vertes pour les cartes adjacentes.


METAR-TAF: